sensor_id;sensor_type;location;lat;lon;timestamp;P1;durP1;ratioP1;P2;durP2;ratioP2
53036;SDS011;38924;52.134;4.666;2023-02-15T00:01:04;65.75;;;44.58;;
53036;SDS011;38924;52.134;4.666;2023-02-15T00:03:30;70.32;;;46.10;;
53036;SDS011;38924;52.134;4.666;2023-02-15T00:05:56;75.15;;;48.83;;
53036;SDS011;38924;52.134;4.666;2023-02-15T00:08:22;73.00;;;47.97;;
53036;SDS011;38924;52.134;4.666;2023-02-15T00:10:48;72.88;;;47.35;;
53036;SDS011;38924;52.134;4.666;2023-02-15T00:13:13;70.75;;;47.85;;
53036;SDS011;38924;52.134;4.666;2023-02-15T00:15:39;70.85;;;45.55;;
53036;SDS011;38924;52.134;4.666;2023-02-15T00:18:05;68.53;;;45.60;;
53036;SDS011;38924;52.134;4.666;2023-02-15T00:20:30;67.72;;;44.78;;
53036;SDS011;38924;52.134;4.666;2023-02-15T00:22:56;69.35;;;45.30;;
53036;SDS011;38924;52.134;4.666;2023-02-15T00:25:22;72.03;;;46.03;;
53036;SDS011;38924;52.134;4.666;2023-02-15T00:27:50;63.60;;;42.72;;
53036;SDS011;38924;52.134;4.666;2023-02-15T00:30:17;72.75;;;46.10;;
53036;SDS011;38924;52.134;4.666;2023-02-15T00:32:42;66.97;;;43.22;;
53036;SDS011;38924;52.134;4.666;2023-02-15T00:35:08;67.40;;;45.05;;
53036;SDS011;38924;52.134;4.666;2023-02-15T00:37:34;68.68;;;45.28;;
53036;SDS011;38924;52.134;4.666;2023-02-15T00:40:02;68.03;;;45.63;;
53036;SDS011;38924;52.134;4.666;2023-02-15T00:42:29;64.43;;;44.35;;
53036;SDS011;38924;52.134;4.666;2023-02-15T00:44:55;66.35;;;44.35;;
53036;SDS011;38924;52.134;4.666;2023-02-15T00:47:20;61.35;;;41.58;;
53036;SDS011;38924;52.134;4.666;2023-02-15T00:49:46;61.45;;;38.72;;
53036;SDS011;38924;52.134;4.666;2023-02-15T00:52:12;52.47;;;36.17;;
53036;SDS011;38924;52.134;4.666;2023-02-15T00:54:37;50.55;;;35.10;;
53036;SDS011;38924;52.134;4.666;2023-02-15T00:57:04;49.40;;;33.08;;
53036;SDS011;38924;52.134;4.666;2023-02-15T00:59:29;49.42;;;32.30;;
53036;SDS011;38924;52.134;4.666;2023-02-15T01:01:55;56.75;;;33.90;;
53036;SDS011;38924;52.134;4.666;2023-02-15T01:04:21;63.35;;;34.53;;
53036;SDS011;38924;52.134;4.666;2023-02-15T01:06:46;61.85;;;34.60;;
53036;SDS011;38924;52.134;4.666;2023-02-15T01:09:12;62.15;;;33.50;;
53036;SDS011;38924;52.134;4.666;2023-02-15T01:11:39;55.22;;;30.73;;
53036;SDS011;38924;52.134;4.666;2023-02-15T01:14:04;50.65;;;30.63;;
53036;SDS011;38924;52.134;4.666;2023-02-15T01:16:30;57.65;;;32.08;;
53036;SDS011;38924;52.134;4.666;2023-02-15T01:18:58;58.08;;;33.92;;
53036;SDS011;38924;52.134;4.666;2023-02-15T01:21:24;53.78;;;31.23;;
53036;SDS011;38924;52.134;4.666;2023-02-15T01:23:50;50.95;;;31.52;;
53036;SDS011;38924;52.134;4.666;2023-02-15T01:26:16;43.65;;;28.73;;
53036;SDS011;38924;52.134;4.666;2023-02-15T01:28:43;45.10;;;27.40;;
53036;SDS011;38924;52.134;4.666;2023-02-15T01:31:10;46.08;;;28.27;;
53036;SDS011;38924;52.134;4.666;2023-02-15T01:33:36;40.05;;;26.60;;
53036;SDS011;38924;52.134;4.666;2023-02-15T01:36:02;41.25;;;26.08;;
53036;SDS011;38924;52.134;4.666;2023-02-15T01:38:28;39.95;;;25.35;;
53036;SDS011;38924;52.134;4.666;2023-02-15T01:40:53;40.20;;;26.42;;
53036;SDS011;38924;52.134;4.666;2023-02-15T01:43:20;37.60;;;27.23;;
53036;SDS011;38924;52.134;4.666;2023-02-15T01:45:46;36.45;;;25.13;;
53036;SDS011;38924;52.134;4.666;2023-02-15T01:50:45;33.85;;;24.30;;
53036;SDS011;38924;52.134;4.666;2023-02-15T01:53:24;36.13;;;24.30;;
53036;SDS011;38924;52.134;4.666;2023-02-15T01:56:08;30.00;;;22.05;;
53036;SDS011;38924;52.134;4.666;2023-02-15T01:58:35;31.50;;;22.17;;
53036;SDS011;38924;52.134;4.666;2023-02-15T02:01:02;27.13;;;21.17;;
53036;SDS011;38924;52.134;4.666;2023-02-15T02:03:42;23.95;;;20.00;;
53036;SDS011;38924;52.134;4.666;2023-02-15T02:06:09;25.30;;;18.85;;
53036;SDS011;38924;52.134;4.666;2023-02-15T02:08:35;23.73;;;19.38;;
53036;SDS011;38924;52.134;4.666;2023-02-15T02:11:01;24.20;;;18.92;;
53036;SDS011;38924;52.134;4.666;2023-02-15T02:13:27;25.35;;;20.27;;
53036;SDS011;38924;52.134;4.666;2023-02-15T02:16:13;25.02;;;18.83;;
53036;SDS011;38924;52.134;4.666;2023-02-15T02:34:11;20.23;;;17.58;;
53036;SDS011;38924;52.134;4.666;2023-02-15T02:36:41;20.42;;;18.25;;
53036;SDS011;38924;52.134;4.666;2023-02-15T02:39:28;20.40;;;17.08;;
53036;SDS011;38924;52.134;4.666;2023-02-15T02:46:58;20.92;;;16.33;;
53036;SDS011;38924;52.134;4.666;2023-02-15T02:52:03;20.88;;;16.67;;
53036;SDS011;38924;52.134;4.666;2023-02-15T02:54:32;21.98;;;17.00;;
53036;SDS011;38924;52.134;4.666;2023-02-15T02:57:00;20.33;;;16.80;;
53036;SDS011;38924;52.134;4.666;2023-02-15T02:59:38;23.90;;;16.13;;
53036;SDS011;38924;52.134;4.666;2023-02-15T03:02:08;21.65;;;17.40;;
53036;SDS011;38924;52.134;4.666;2023-02-15T03:04:39;23.25;;;17.60;;
53036;SDS011;38924;52.134;4.666;2023-02-15T03:07:07;20.33;;;16.17;;
53036;SDS011;38924;52.134;4.666;2023-02-15T03:09:36;21.98;;;17.88;;
53036;SDS011;38924;52.134;4.666;2023-02-15T03:12:14;21.65;;;18.27;;
53036;SDS011;38924;52.134;4.666;2023-02-15T03:14:45;23.23;;;18.20;;
53036;SDS011;38924;52.134;4.666;2023-02-15T03:17:12;26.58;;;19.17;;
53036;SDS011;38924;52.134;4.666;2023-02-15T03:19:38;49.10;;;29.92;;
53036;SDS011;38924;52.134;4.666;2023-02-15T03:22:06;38.67;;;24.45;;
53036;SDS011;38924;52.134;4.666;2023-02-15T03:27:02;37.40;;;22.70;;
53036;SDS011;38924;52.134;4.666;2023-02-15T03:29:29;30.95;;;20.30;;
53036;SDS011;38924;52.134;4.666;2023-02-15T03:32:00;28.73;;;19.33;;
53036;SDS011;38924;52.134;4.666;2023-02-15T03:34:28;28.92;;;18.85;;
53036;SDS011;38924;52.134;4.666;2023-02-15T03:37:03;29.77;;;20.23;;
53036;SDS011;38924;52.134;4.666;2023-02-15T03:39:52;26.17;;;18.95;;
53036;SDS011;38924;52.134;4.666;2023-02-15T03:42:29;27.33;;;18.42;;
53036;SDS011;38924;52.134;4.666;2023-02-15T03:45:03;26.77;;;17.38;;
53036;SDS011;38924;52.134;4.666;2023-02-15T03:47:31;28.05;;;18.95;;
53036;SDS011;38924;52.134;4.666;2023-02-15T03:50:00;24.67;;;17.58;;
53036;SDS011;38924;52.134;4.666;2023-02-15T03:52:27;31.05;;;21.52;;
53036;SDS011;38924;52.134;4.666;2023-02-15T03:54:55;43.80;;;26.38;;
53036;SDS011;38924;52.134;4.666;2023-02-15T03:57:22;47.08;;;29.95;;
53036;SDS011;38924;52.134;4.666;2023-02-15T04:05:45;52.35;;;31.80;;
53036;SDS011;38924;52.134;4.666;2023-02-15T04:08:11;53.65;;;31.75;;
53036;SDS011;38924;52.134;4.666;2023-02-15T04:10:40;63.33;;;34.08;;
53036;SDS011;38924;52.134;4.666;2023-02-15T04:13:19;61.30;;;35.17;;
53036;SDS011;38924;52.134;4.666;2023-02-15T04:15:44;65.22;;;38.17;;
53036;SDS011;38924;52.134;4.666;2023-02-15T04:18:35;56.72;;;33.55;;
53036;SDS011;38924;52.134;4.666;2023-02-15T04:21:20;57.65;;;34.00;;
53036;SDS011;38924;52.134;4.666;2023-02-15T04:26:48;58.50;;;31.85;;
53036;SDS011;38924;52.134;4.666;2023-02-15T04:29:21;47.42;;;28.55;;
53036;SDS011;38924;52.134;4.666;2023-02-15T04:31:47;50.38;;;32.40;;
53036;SDS011;38924;52.134;4.666;2023-02-15T04:34:13;48.03;;;29.88;;
53036;SDS011;38924;52.134;4.666;2023-02-15T04:36:39;57.00;;;32.63;;
53036;SDS011;38924;52.134;4.666;2023-02-15T04:39:05;55.42;;;32.88;;
53036;SDS011;38924;52.134;4.666;2023-02-15T04:41:31;55.28;;;32.20;;
53036;SDS011;38924;52.134;4.666;2023-02-15T04:43:57;53.30;;;32.33;;
53036;SDS011;38924;52.134;4.666;2023-02-15T04:46:23;55.22;;;31.30;;
53036;SDS011;38924;52.134;4.666;2023-02-15T04:48:48;52.30;;;35.38;;
53036;SDS011;38924;52.134;4.666;2023-02-15T04:51:17;55.55;;;33.15;;
53036;SDS011;38924;52.134;4.666;2023-02-15T04:53:42;56.25;;;33.72;;
53036;SDS011;38924;52.134;4.666;2023-02-15T04:56:08;51.28;;;32.75;;
53036;SDS011;38924;52.134;4.666;2023-02-15T04:58:34;52.88;;;32.65;;
53036;SDS011;38924;52.134;4.666;2023-02-15T05:01:00;59.00;;;35.75;;
53036;SDS011;38924;52.134;4.666;2023-02-15T05:03:26;54.47;;;33.95;;
53036;SDS011;38924;52.134;4.666;2023-02-15T05:05:52;48.75;;;31.45;;
53036;SDS011;38924;52.134;4.666;2023-02-15T05:08:18;52.47;;;32.38;;
53036;SDS011;38924;52.134;4.666;2023-02-15T05:10:43;55.58;;;32.97;;
53036;SDS011;38924;52.134;4.666;2023-02-15T05:13:09;62.00;;;35.33;;
53036;SDS011;38924;52.134;4.666;2023-02-15T05:15:34;59.53;;;35.90;;
53036;SDS011;38924;52.134;4.666;2023-02-15T05:18:00;61.05;;;35.35;;
53036;SDS011;38924;52.134;4.666;2023-02-15T05:20:27;63.17;;;36.90;;
53036;SDS011;38924;52.134;4.666;2023-02-15T05:22:53;63.28;;;37.42;;
53036;SDS011;38924;52.134;4.666;2023-02-15T05:25:19;56.78;;;34.42;;
53036;SDS011;38924;52.134;4.666;2023-02-15T05:28:03;66.47;;;37.30;;
53036;SDS011;38924;52.134;4.666;2023-02-15T05:30:48;59.67;;;34.63;;
53036;SDS011;38924;52.134;4.666;2023-02-15T05:33:14;63.17;;;36.25;;
53036;SDS011;38924;52.134;4.666;2023-02-15T05:35:39;62.80;;;36.30;;
53036;SDS011;38924;52.134;4.666;2023-02-15T05:38:05;58.53;;;36.15;;
53036;SDS011;38924;52.134;4.666;2023-02-15T05:40:30;67.22;;;37.70;;
53036;SDS011;38924;52.134;4.666;2023-02-15T05:42:56;65.15;;;35.83;;
53036;SDS011;38924;52.134;4.666;2023-02-15T05:45:22;69.15;;;39.22;;
53036;SDS011;38924;52.134;4.666;2023-02-15T05:47:48;62.42;;;38.22;;
53036;SDS011;38924;52.134;4.666;2023-02-15T05:50:13;65.85;;;37.50;;
53036;SDS011;38924;52.134;4.666;2023-02-15T05:52:39;64.95;;;40.85;;
53036;SDS011;38924;52.134;4.666;2023-02-15T05:55:05;70.03;;;41.28;;
53036;SDS011;38924;52.134;4.666;2023-02-15T05:57:31;67.10;;;40.10;;
53036;SDS011;38924;52.134;4.666;2023-02-15T05:59:57;73.32;;;40.10;;
53036;SDS011;38924;52.134;4.666;2023-02-15T06:02:23;71.65;;;40.03;;
53036;SDS011;38924;52.134;4.666;2023-02-15T06:04:48;70.80;;;40.47;;
53036;SDS011;38924;52.134;4.666;2023-02-15T06:07:14;67.28;;;41.35;;
53036;SDS011;38924;52.134;4.666;2023-02-15T06:09:39;73.80;;;43.30;;
53036;SDS011;38924;52.134;4.666;2023-02-15T06:12:05;72.88;;;42.03;;
53036;SDS011;38924;52.134;4.666;2023-02-15T06:14:31;70.43;;;41.22;;
53036;SDS011;38924;52.134;4.666;2023-02-15T06:16:57;67.05;;;41.78;;
53036;SDS011;38924;52.134;4.666;2023-02-15T06:19:22;64.40;;;38.55;;
53036;SDS011;38924;52.134;4.666;2023-02-15T06:21:48;66.85;;;41.03;;
53036;SDS011;38924;52.134;4.666;2023-02-15T06:24:14;73.22;;;41.20;;
53036;SDS011;38924;52.134;4.666;2023-02-15T06:26:40;72.85;;;40.30;;
53036;SDS011;38924;52.134;4.666;2023-02-15T06:29:05;74.20;;;39.95;;
53036;SDS011;38924;52.134;4.666;2023-02-15T06:31:31;67.85;;;41.17;;
53036;SDS011;38924;52.134;4.666;2023-02-15T06:33:57;71.38;;;40.85;;
53036;SDS011;38924;52.134;4.666;2023-02-15T06:36:27;70.20;;;40.17;;
53036;SDS011;38924;52.134;4.666;2023-02-15T06:38:53;64.47;;;37.90;;
53036;SDS011;38924;52.134;4.666;2023-02-15T06:41:18;69.25;;;38.53;;
53036;SDS011;38924;52.134;4.666;2023-02-15T06:43:44;69.15;;;41.38;;
53036;SDS011;38924;52.134;4.666;2023-02-15T06:46:10;62.55;;;38.58;;
53036;SDS011;38924;52.134;4.666;2023-02-15T06:48:35;62.25;;;36.15;;
53036;SDS011;38924;52.134;4.666;2023-02-15T06:51:01;63.25;;;37.17;;
53036;SDS011;38924;52.134;4.666;2023-02-15T06:53:27;68.15;;;38.55;;
53036;SDS011;38924;52.134;4.666;2023-02-15T06:55:52;52.85;;;35.60;;
53036;SDS011;38924;52.134;4.666;2023-02-15T06:58:24;59.10;;;37.28;;
53036;SDS011;38924;52.134;4.666;2023-02-15T07:00:51;64.90;;;37.25;;
53036;SDS011;38924;52.134;4.666;2023-02-15T07:03:17;60.42;;;36.50;;
53036;SDS011;38924;52.134;4.666;2023-02-15T07:05:42;61.75;;;37.15;;
53036;SDS011;38924;52.134;4.666;2023-02-15T07:08:09;60.83;;;35.67;;
53036;SDS011;38924;52.134;4.666;2023-02-15T07:10:37;65.78;;;36.83;;
53036;SDS011;38924;52.134;4.666;2023-02-15T07:13:02;65.75;;;37.25;;
53036;SDS011;38924;52.134;4.666;2023-02-15T07:15:28;64.13;;;39.05;;
53036;SDS011;38924;52.134;4.666;2023-02-15T07:17:54;58.28;;;35.88;;
53036;SDS011;38924;52.134;4.666;2023-02-15T07:20:22;64.97;;;36.00;;
53036;SDS011;38924;52.134;4.666;2023-02-15T07:22:48;59.67;;;33.92;;
53036;SDS011;38924;52.134;4.666;2023-02-15T07:25:14;63.67;;;37.10;;
53036;SDS011;38924;52.134;4.666;2023-02-15T07:27:40;64.38;;;37.17;;
53036;SDS011;38924;52.134;4.666;2023-02-15T07:30:06;62.45;;;36.60;;
53036;SDS011;38924;52.134;4.666;2023-02-15T07:32:33;61.83;;;36.00;;
53036;SDS011;38924;52.134;4.666;2023-02-15T07:34:59;65.85;;;37.17;;
53036;SDS011;38924;52.134;4.666;2023-02-15T07:37:25;62.05;;;34.70;;
53036;SDS011;38924;52.134;4.666;2023-02-15T07:39:51;64.65;;;35.28;;
53036;SDS011;38924;52.134;4.666;2023-02-15T07:42:17;59.47;;;35.38;;
53036;SDS011;38924;52.134;4.666;2023-02-15T07:44:45;62.70;;;38.28;;
53036;SDS011;38924;52.134;4.666;2023-02-15T07:47:11;67.82;;;38.58;;
53036;SDS011;38924;52.134;4.666;2023-02-15T07:49:37;60.50;;;36.22;;
53036;SDS011;38924;52.134;4.666;2023-02-15T07:52:03;69.45;;;37.17;;
53036;SDS011;38924;52.134;4.666;2023-02-15T07:54:29;64.00;;;38.47;;
53036;SDS011;38924;52.134;4.666;2023-02-15T07:56:55;69.90;;;36.50;;
53036;SDS011;38924;52.134;4.666;2023-02-15T07:59:21;64.15;;;37.38;;
53036;SDS011;38924;52.134;4.666;2023-02-15T08:01:46;63.72;;;38.42;;
53036;SDS011;38924;52.134;4.666;2023-02-15T08:04:12;53.85;;;36.28;;
53036;SDS011;38924;52.134;4.666;2023-02-15T08:06:37;61.42;;;37.38;;
53036;SDS011;38924;52.134;4.666;2023-02-15T08:09:04;59.28;;;34.20;;
53036;SDS011;38924;52.134;4.666;2023-02-15T08:11:31;51.28;;;36.15;;
53036;SDS011;38924;52.134;4.666;2023-02-15T08:16:45;52.25;;;30.48;;
53036;SDS011;38924;52.134;4.666;2023-02-15T08:19:12;48.92;;;31.48;;
53036;SDS011;38924;52.134;4.666;2023-02-15T08:21:39;52.83;;;32.13;;
53036;SDS011;38924;52.134;4.666;2023-02-15T08:24:05;54.13;;;31.77;;
53036;SDS011;38924;52.134;4.666;2023-02-15T08:26:31;48.13;;;31.80;;
53036;SDS011;38924;52.134;4.666;2023-02-15T08:28:57;50.15;;;31.95;;
53036;SDS011;38924;52.134;4.666;2023-02-15T08:31:23;48.00;;;31.98;;
53036;SDS011;38924;52.134;4.666;2023-02-15T08:33:50;47.15;;;30.58;;
53036;SDS011;38924;52.134;4.666;2023-02-15T08:36:17;50.92;;;33.05;;
53036;SDS011;38924;52.134;4.666;2023-02-15T08:38:43;52.05;;;34.03;;
53036;SDS011;38924;52.134;4.666;2023-02-15T08:41:14;51.80;;;33.33;;
53036;SDS011;38924;52.134;4.666;2023-02-15T08:43:41;57.70;;;35.17;;
53036;SDS011;38924;52.134;4.666;2023-02-15T08:46:07;49.85;;;33.38;;
53036;SDS011;38924;52.134;4.666;2023-02-15T08:48:36;52.22;;;33.03;;
53036;SDS011;38924;52.134;4.666;2023-02-15T08:51:12;55.17;;;33.72;;
53036;SDS011;38924;52.134;4.666;2023-02-15T08:53:38;50.92;;;33.67;;
53036;SDS011;38924;52.134;4.666;2023-02-15T08:56:04;49.38;;;33.50;;
53036;SDS011;38924;52.134;4.666;2023-02-15T08:58:30;52.58;;;33.55;;
53036;SDS011;38924;52.134;4.666;2023-02-15T09:00:56;52.00;;;33.78;;
53036;SDS011;38924;52.134;4.666;2023-02-15T09:03:22;56.75;;;35.47;;
53036;SDS011;38924;52.134;4.666;2023-02-15T09:05:48;53.00;;;34.80;;
53036;SDS011;38924;52.134;4.666;2023-02-15T09:08:14;57.35;;;34.80;;
53036;SDS011;38924;52.134;4.666;2023-02-15T09:10:40;55.55;;;34.95;;
53036;SDS011;38924;52.134;4.666;2023-02-15T09:13:06;54.80;;;34.97;;
53036;SDS011;38924;52.134;4.666;2023-02-15T09:15:31;54.58;;;34.85;;
53036;SDS011;38924;52.134;4.666;2023-02-15T09:17:57;50.13;;;32.72;;
53036;SDS011;38924;52.134;4.666;2023-02-15T09:20:26;56.55;;;35.38;;
53036;SDS011;38924;52.134;4.666;2023-02-15T09:22:53;58.88;;;34.63;;
53036;SDS011;38924;52.134;4.666;2023-02-15T09:25:19;51.08;;;34.75;;
53036;SDS011;38924;52.134;4.666;2023-02-15T09:27:48;53.10;;;34.60;;
53036;SDS011;38924;52.134;4.666;2023-02-15T09:30:14;52.85;;;33.95;;
53036;SDS011;38924;52.134;4.666;2023-02-15T09:32:40;54.63;;;36.35;;
53036;SDS011;38924;52.134;4.666;2023-02-15T09:35:05;57.72;;;36.95;;
53036;SDS011;38924;52.134;4.666;2023-02-15T09:37:32;52.58;;;36.60;;
53036;SDS011;38924;52.134;4.666;2023-02-15T09:39:58;55.35;;;38.38;;
53036;SDS011;38924;52.134;4.666;2023-02-15T09:42:31;57.30;;;37.97;;
53036;SDS011;38924;52.134;4.666;2023-02-15T09:55:12;58.83;;;37.45;;
53036;SDS011;38924;52.134;4.666;2023-02-15T09:57:43;54.70;;;36.08;;
53036;SDS011;38924;52.134;4.666;2023-02-15T10:13:48;53.78;;;35.55;;
53036;SDS011;38924;52.134;4.666;2023-02-15T10:18:57;54.10;;;36.08;;
53036;SDS011;38924;52.134;4.666;2023-02-15T10:29:03;59.78;;;37.88;;
53036;SDS011;38924;52.134;4.666;2023-02-15T10:39:02;52.50;;;36.55;;
53036;SDS011;38924;52.134;4.666;2023-02-15T10:44:06;49.95;;;37.08;;
53036;SDS011;38924;52.134;4.666;2023-02-15T10:46:40;59.17;;;37.13;;
53036;SDS011;38924;52.134;4.666;2023-02-15T10:49:15;55.45;;;39.03;;
53036;SDS011;38924;52.134;4.666;2023-02-15T10:52:09;55.53;;;37.78;;
53036;SDS011;38924;52.134;4.666;2023-02-15T10:54:48;56.15;;;38.30;;
53036;SDS011;38924;52.134;4.666;2023-02-15T11:07:55;63.90;;;39.55;;
53036;SDS011;38924;52.134;4.666;2023-02-15T11:10:26;61.63;;;42.38;;
53036;SDS011;38924;52.134;4.666;2023-02-15T11:12:53;66.15;;;42.35;;
53036;SDS011;38924;52.134;4.666;2023-02-15T11:15:39;66.68;;;43.22;;
53036;SDS011;38924;52.134;4.666;2023-02-15T11:20:42;64.72;;;41.45;;
53036;SDS011;38924;52.134;4.666;2023-02-15T11:23:13;67.13;;;43.15;;
53036;SDS011;38924;52.134;4.666;2023-02-15T11:25:43;67.97;;;42.70;;
53036;SDS011;38924;52.134;4.666;2023-02-15T11:28:13;62.53;;;40.65;;
53036;SDS011;38924;52.134;4.666;2023-02-15T11:30:42;61.10;;;40.00;;
53036;SDS011;38924;52.134;4.666;2023-02-15T11:33:27;61.50;;;40.58;;
53036;SDS011;38924;52.134;4.666;2023-02-15T11:35:57;55.85;;;40.30;;
53036;SDS011;38924;52.134;4.666;2023-02-15T11:38:26;65.30;;;41.55;;
53036;SDS011;38924;52.134;4.666;2023-02-15T11:40:54;60.88;;;43.28;;
53036;SDS011;38924;52.134;4.666;2023-02-15T11:45:55;67.68;;;42.00;;
53036;SDS011;38924;52.134;4.666;2023-02-15T11:48:21;62.78;;;41.20;;
53036;SDS011;38924;52.134;4.666;2023-02-15T11:50:47;61.95;;;42.67;;
53036;SDS011;38924;52.134;4.666;2023-02-15T11:53:16;64.53;;;43.15;;
53036;SDS011;38924;52.134;4.666;2023-02-15T11:55:43;68.53;;;45.00;;
53036;SDS011;38924;52.134;4.666;2023-02-15T11:58:16;70.10;;;44.25;;
53036;SDS011;38924;52.134;4.666;2023-02-15T12:00:45;68.28;;;43.58;;
53036;SDS011;38924;52.134;4.666;2023-02-15T12:03:19;68.93;;;44.15;;
53036;SDS011;38924;52.134;4.666;2023-02-15T12:05:48;72.43;;;44.33;;
53036;SDS011;38924;52.134;4.666;2023-02-15T12:08:19;68.05;;;42.42;;
53036;SDS011;38924;52.134;4.666;2023-02-15T12:13:18;62.63;;;41.60;;
53036;SDS011;38924;52.134;4.666;2023-02-15T12:15:45;61.75;;;44.33;;
53036;SDS011;38924;52.134;4.666;2023-02-15T12:20:58;66.32;;;43.90;;
53036;SDS011;38924;52.134;4.666;2023-02-15T12:23:25;72.13;;;47.05;;
53036;SDS011;38924;52.134;4.666;2023-02-15T12:25:53;66.72;;;42.33;;
53036;SDS011;38924;52.134;4.666;2023-02-15T12:28:22;69.25;;;45.08;;
53036;SDS011;38924;52.134;4.666;2023-02-15T12:30:49;62.65;;;42.42;;
53036;SDS011;38924;52.134;4.666;2023-02-15T12:35:42;57.03;;;41.55;;
53036;SDS011;38924;52.134;4.666;2023-02-15T12:40:35;61.53;;;41.22;;
53036;SDS011;38924;52.134;4.666;2023-02-15T12:43:01;60.97;;;40.67;;
53036;SDS011;38924;52.134;4.666;2023-02-15T12:45:37;60.13;;;39.65;;
53036;SDS011;38924;52.134;4.666;2023-02-15T12:48:12;60.72;;;40.03;;
53036;SDS011;38924;52.134;4.666;2023-02-15T12:50:40;62.85;;;41.45;;
53036;SDS011;38924;52.134;4.666;2023-02-15T12:53:08;59.13;;;41.47;;
53036;SDS011;38924;52.134;4.666;2023-02-15T12:55:37;59.25;;;40.72;;
53036;SDS011;38924;52.134;4.666;2023-02-15T12:58:20;56.00;;;40.28;;
53036;SDS011;38924;52.134;4.666;2023-02-15T13:00:47;58.17;;;40.10;;
53036;SDS011;38924;52.134;4.666;2023-02-15T13:03:28;61.40;;;42.58;;
53036;SDS011;38924;52.134;4.666;2023-02-15T13:05:54;60.33;;;41.15;;
53036;SDS011;38924;52.134;4.666;2023-02-15T13:08:21;59.33;;;40.38;;
53036;SDS011;38924;52.134;4.666;2023-02-15T13:10:54;59.13;;;40.13;;
53036;SDS011;38924;52.134;4.666;2023-02-15T13:13:22;60.17;;;39.72;;
53036;SDS011;38924;52.134;4.666;2023-02-15T13:15:48;56.45;;;38.25;;
53036;SDS011;38924;52.134;4.666;2023-02-15T13:18:16;59.47;;;39.08;;
53036;SDS011;38924;52.134;4.666;2023-02-15T13:20:44;60.20;;;38.88;;
53036;SDS011;38924;52.134;4.666;2023-02-15T13:23:23;59.13;;;40.78;;
53036;SDS011;38924;52.134;4.666;2023-02-15T13:25:54;53.67;;;37.60;;
53036;SDS011;38924;52.134;4.666;2023-02-15T13:28:22;60.33;;;38.38;;
53036;SDS011;38924;52.134;4.666;2023-02-15T13:30:48;55.17;;;39.15;;
53036;SDS011;38924;52.134;4.666;2023-02-15T13:35:55;59.05;;;37.03;;
53036;SDS011;38924;52.134;4.666;2023-02-15T13:38:56;55.05;;;37.28;;
53036;SDS011;38924;52.134;4.666;2023-02-15T13:41:52;57.10;;;38.47;;
53036;SDS011;38924;52.134;4.666;2023-02-15T13:44:15;58.50;;;37.33;;
53036;SDS011;38924;52.134;4.666;2023-02-15T13:46:47;57.13;;;37.05;;
53036;SDS011;38924;52.134;4.666;2023-02-15T13:49:19;59.53;;;38.55;;
53036;SDS011;38924;52.134;4.666;2023-02-15T13:51:55;58.60;;;39.72;;
53036;SDS011;38924;52.134;4.666;2023-02-15T14:00:03;57.63;;;38.13;;
53036;SDS011;38924;52.134;4.666;2023-02-15T14:10:31;60.58;;;39.22;;
53036;SDS011;38924;52.134;4.666;2023-02-15T14:15:47;61.90;;;38.63;;
53036;SDS011;38924;52.134;4.666;2023-02-15T14:23:38;56.40;;;39.40;;
53036;SDS011;38924;52.134;4.666;2023-02-15T14:28:54;56.38;;;40.00;;
53036;SDS011;38924;52.134;4.666;2023-02-15T14:31:27;61.10;;;39.08;;
53036;SDS011;38924;52.134;4.666;2023-02-15T14:33:55;54.20;;;38.50;;
53036;SDS011;38924;52.134;4.666;2023-02-15T14:36:21;65.00;;;38.65;;
53036;SDS011;38924;52.134;4.666;2023-02-15T14:38:59;65.75;;;41.42;;
53036;SDS011;38924;52.134;4.666;2023-02-15T14:41:40;59.38;;;41.03;;
53036;SDS011;38924;52.134;4.666;2023-02-15T14:44:21;54.35;;;37.63;;
53036;SDS011;38924;52.134;4.666;2023-02-15T14:47:05;51.22;;;34.83;;
53036;SDS011;38924;52.134;4.666;2023-02-15T14:49:32;58.47;;;39.55;;
53036;SDS011;38924;52.134;4.666;2023-02-15T15:02:21;54.97;;;37.47;;
53036;SDS011;38924;52.134;4.666;2023-02-15T15:07:23;59.75;;;38.35;;
53036;SDS011;38924;52.134;4.666;2023-02-15T15:09:59;59.58;;;39.85;;
53036;SDS011;38924;52.134;4.666;2023-02-15T15:14:52;58.05;;;39.40;;
53036;SDS011;38924;52.134;4.666;2023-02-15T15:20:11;55.33;;;38.70;;
53036;SDS011;38924;52.134;4.666;2023-02-15T15:22:41;61.90;;;39.55;;
53036;SDS011;38924;52.134;4.666;2023-02-15T15:25:09;56.45;;;37.33;;
53036;SDS011;38924;52.134;4.666;2023-02-15T15:27:43;65.32;;;41.42;;
53036;SDS011;38924;52.134;4.666;2023-02-15T15:32:40;57.40;;;37.38;;
53036;SDS011;38924;52.134;4.666;2023-02-15T15:45:54;59.70;;;38.77;;
53036;SDS011;38924;52.134;4.666;2023-02-15T15:48:36;57.33;;;37.90;;
53036;SDS011;38924;52.134;4.666;2023-02-15T15:51:05;57.40;;;35.17;;
53036;SDS011;38924;52.134;4.666;2023-02-15T15:53:34;67.10;;;37.65;;
53036;SDS011;38924;52.134;4.666;2023-02-15T15:56:05;60.05;;;37.20;;
53036;SDS011;38924;52.134;4.666;2023-02-15T15:58:31;56.88;;;37.88;;
53036;SDS011;38924;52.134;4.666;2023-02-15T16:00:59;57.55;;;40.00;;
53036;SDS011;38924;52.134;4.666;2023-02-15T16:03:26;65.28;;;40.97;;
53036;SDS011;38924;52.134;4.666;2023-02-15T16:05:53;65.38;;;39.83;;
53036;SDS011;38924;52.134;4.666;2023-02-15T16:11:10;64.30;;;44.38;;
53036;SDS011;38924;52.134;4.666;2023-02-15T16:13:36;67.32;;;44.42;;
53036;SDS011;38924;52.134;4.666;2023-02-15T16:16:01;68.93;;;43.28;;
53036;SDS011;38924;52.134;4.666;2023-02-15T16:18:27;68.90;;;43.05;;
53036;SDS011;38924;52.134;4.666;2023-02-15T16:20:59;68.65;;;43.15;;
53036;SDS011;38924;52.134;4.666;2023-02-15T16:25:54;71.72;;;45.33;;
53036;SDS011;38924;52.134;4.666;2023-02-15T16:28:25;72.07;;;45.50;;
53036;SDS011;38924;52.134;4.666;2023-02-15T16:31:33;65.43;;;44.67;;
53036;SDS011;38924;52.134;4.666;2023-02-15T16:33:40;69.22;;;45.38;;
53036;SDS011;38924;52.134;4.666;2023-02-15T16:36:09;71.75;;;46.83;;
53036;SDS011;38924;52.134;4.666;2023-02-15T16:41:07;69.50;;;47.50;;
53036;SDS011;38924;52.134;4.666;2023-02-15T16:43:33;73.63;;;48.97;;
53036;SDS011;38924;52.134;4.666;2023-02-15T16:46:22;83.40;;;47.38;;
53036;SDS011;38924;52.134;4.666;2023-02-15T16:48:45;80.03;;;47.58;;
53036;SDS011;38924;52.134;4.666;2023-02-15T16:51:18;74.22;;;46.35;;
53036;SDS011;38924;52.134;4.666;2023-02-15T16:53:46;73.38;;;48.28;;
53036;SDS011;38924;52.134;4.666;2023-02-15T16:56:15;75.38;;;47.92;;
53036;SDS011;38924;52.134;4.666;2023-02-15T16:58:42;74.15;;;50.15;;
53036;SDS011;38924;52.134;4.666;2023-02-15T17:01:10;78.63;;;48.97;;
53036;SDS011;38924;52.134;4.666;2023-02-15T17:03:37;77.07;;;48.25;;
53036;SDS011;38924;52.134;4.666;2023-02-15T17:06:03;79.60;;;49.60;;
53036;SDS011;38924;52.134;4.666;2023-02-15T17:08:42;74.97;;;49.13;;
53036;SDS011;38924;52.134;4.666;2023-02-15T17:13:36;74.93;;;47.20;;
53036;SDS011;38924;52.134;4.666;2023-02-15T17:20:54;84.50;;;51.40;;
53036;SDS011;38924;52.134;4.666;2023-02-15T17:23:22;74.68;;;49.53;;
53036;SDS011;38924;52.134;4.666;2023-02-15T17:25:50;83.30;;;48.08;;
53036;SDS011;38924;52.134;4.666;2023-02-15T17:28:19;83.35;;;49.10;;
53036;SDS011;38924;52.134;4.666;2023-02-15T17:30:45;77.55;;;47.38;;
53036;SDS011;38924;52.134;4.666;2023-02-15T17:33:19;75.72;;;48.15;;